createdAt,value
2016-09-09T13:24:34.352Z,85
2016-09-09T13:25:34.489Z,15
2016-09-09T13:26:34.310Z,15
2016-09-09T13:27:34.371Z,15
2016-09-09T13:28:34.527Z,15
2016-09-09T13:29:34.424Z,15
2016-09-09T13:30:34.460Z,15
2016-09-09T13:31:34.514Z,1060
2016-09-09T13:32:34.522Z,945
2016-09-09T13:33:34.499Z,880
2016-09-09T13:34:34.549Z,160
2016-09-09T13:35:34.569Z,1230
2016-09-09T13:36:34.577Z,1135
2016-09-09T13:37:34.650Z,1075
2016-09-09T13:38:34.658Z,1060
2016-09-09T13:39:34.733Z,1060
2016-09-09T13:40:34.786Z,1055
2016-09-09T13:41:34.803Z,1070
2016-09-09T13:42:34.820Z,1100
2016-09-09T14:30:40.244Z,145
2016-09-09T14:31:40.298Z,145
2016-09-09T14:32:40.365Z,145
2016-09-09T14:33:40.281Z,145
2016-09-09T14:34:40.291Z,140
2016-09-09T14:35:40.349Z,140
2016-09-09T14:36:40.425Z,140
2016-09-09T14:37:40.442Z,140
2016-09-09T14:38:40.571Z,140
2016-09-09T14:39:40.472Z,140
2016-09-09T14:40:40.536Z,140
2016-09-09T14:41:40.617Z,135
2016-09-09T14:42:40.651Z,135
2016-09-09T14:43:40.645Z,115
2016-09-09T14:44:40.671Z,115
2016-09-09T14:45:40.830Z,115
2016-09-09T14:46:40.909Z,110
2016-09-09T14:47:40.775Z,110
2016-09-09T14:48:40.796Z,110
2016-09-09T14:49:40.835Z,110
2016-09-09T14:50:40.888Z,110
2016-09-09T14:51:40.946Z,105
2016-09-09T14:52:40.980Z,105
2016-09-09T14:53:40.979Z,105
2016-09-09T14:54:41.051Z,105
2016-09-09T14:55:41.076Z,105
2016-09-09T14:56:41.131Z,100
2016-09-09T14:57:41.125Z,100
2016-09-09T14:58:41.176Z,100
2016-09-09T14:59:41.197Z,100
2016-09-09T15:00:41.215Z,100
2016-09-09T15:17:39.233Z,85
2016-09-09T15:18:40.676Z,85
2016-09-09T15:19:39.131Z,85
2016-09-09T15:20:38.868Z,80
2016-09-09T15:21:39.081Z,80
2016-09-09T15:22:38.980Z,80
2016-09-09T15:23:38.992Z,80
2016-09-09T15:24:39.226Z,80
2016-09-09T15:25:42.060Z,80
2016-09-09T15:26:39.098Z,75
2016-09-09T15:27:39.107Z,75
2016-09-09T15:28:39.467Z,65
2016-09-09T15:29:49.407Z,65
2016-09-09T15:30:39.240Z,60
2016-09-09T15:31:39.233Z,60
2016-09-09T15:32:39.260Z,60
2016-09-09T15:33:39.340Z,60
2016-09-09T15:34:39.307Z,60
2016-09-09T15:35:39.365Z,60
2016-09-09T15:36:39.413Z,55
2016-09-09T15:37:39.435Z,55
2016-09-09T15:38:39.516Z,55
2016-09-09T15:39:40.203Z,55
2016-09-09T15:40:39.900Z,55
2016-09-09T15:41:40.167Z,55
2016-09-09T15:42:39.763Z,55
2016-09-09T15:43:39.663Z,50
2016-09-09T15:44:39.677Z,50
2016-09-09T15:45:39.773Z,50
2016-09-09T15:46:39.928Z,50
2016-09-09T15:47:39.751Z,50
2016-09-09T15:48:39.838Z,50
